Time;durP1;ratioP1;P1;durP2;ratioP2;P2;SDS_P1;SDS_P2;PMS_P1;PMS_P2;Temp;Humidity;BMP_temperature;BMP_pressure;BME280_temperature;BME280_humidity;BME280_pressure;Samples;Min_cycle;Max_cycle;Signal;HPM_P1;HPM_P2
2022/12/15 00:38:46;;;;;;;43.58;22.15;;;;;;;;;;4990963;28;20038;-79
2022/12/15 00:41:15;;;;;;;42.08;20.52;;;;;;;;;;4990840;28;20062;-74
2022/12/15 00:43:45;;;;;;;34.80;20.77;;;;;;;;;;4995383;28;20030;-78
2022/12/15 00:48:55;;;;;;;39.53;22.20;;;;;;;;;;4990507;28;20042;-77
2022/12/15 00:51:21;;;;;;;46.63;24.33;;;;;;;;;;4983099;28;20089;-77
2022/12/15 01:21:12;;;;;;;57.03;25.67;;;;;;;;;;4990992;28;20030;-77
2022/12/15 01:23:40;;;;;;;44.28;24.48;;;;;;;;;;4989649;28;20034;-77
2022/12/15 01:26:07;;;;;;;60.45;27.45;;;;;;;;;;4987837;28;20110;-77
2022/12/15 01:28:33;;;;;;;46.45;24.90;;;;;;;;;;4990984;28;20030;-77
2022/12/15 01:30:58;;;;;;;47.08;24.58;;;;;;;;;;4986465;28;20030;-77
2022/12/15 01:33:24;;;;;;;41.55;21.75;;;;;;;;;;4988499;28;20097;-77
2022/12/15 01:36:00;;;;;;;58.97;27.40;;;;;;;;;;4990475;28;20034;-77
2022/12/15 01:38:27;;;;;;;61.13;26.58;;;;;;;;;;4989685;28;20474;-78
2022/12/15 01:40:56;;;;;;;59.55;27.40;;;;;;;;;;4987797;28;21232;-78
2022/12/15 01:43:27;;;;;;;;;;;;;;;;;;4989027;28;20062;-76
2022/12/15 01:46:11;;;;;;;38.00;21.98;;;;;;;;;;4989077;28;19929;-78
2022/12/15 01:48:48;;;;;;;43.08;23.42;;;;;;;;;;4988600;28;20039;-78
2022/12/15 01:51:16;;;;;;;51.97;26.90;;;;;;;;;;4987974;28;20102;-77
2022/12/15 01:54:14;;;;;;;48.35;24.45;;;;;;;;;;4987793;28;20101;-78
2022/12/15 01:56:49;;;;;;;50.97;26.92;;;;;;;;;;4987290;28;20038;-78
2022/12/15 01:59:23;;;;;;;49.40;24.13;;;;;;;;;;4989586;28;20097;-78
2022/12/15 02:01:49;;;;;;;40.13;22.63;;;;;;;;;;4987550;28;20034;-78
2022/12/15 02:04:18;;;;;;;49.30;26.25;;;;;;;;;;4989676;28;20137;-78
2022/12/15 02:06:43;;;;;;;52.58;26.08;;;;;;;;;;4987460;28;20121;-77
2022/12/15 02:09:09;;;;;;;41.08;22.15;;;;;;;;;;4988107;28;20121;-77
2022/12/15 02:11:55;;;;;;;39.90;22.85;;;;;;;;;;4988938;28;20030;-77
2022/12/15 02:14:31;;;;;;;56.60;26.13;;;;;;;;;;4990995;28;20033;-77
2022/12/15 02:17:21;;;;;;;56.75;27.08;;;;;;;;;;4988924;28;20471;-77
2022/12/15 02:20:07;;;;;;;45.78;22.40;;;;;;;;;;4988391;28;20085;-77
2022/12/15 02:22:41;;;;;;;42.35;24.98;;;;;;;;;;4976578;28;20543;-77
2022/12/15 02:25:22;;;;;;;47.15;23.08;;;;;;;;;;4989544;28;20049;-77
2022/12/15 02:28:00;;;;;;;41.08;22.33;;;;;;;;;;4988342;28;20494;-77
2022/12/15 02:30:39;;;;;;;44.88;21.52;;;;;;;;;;4997187;28;20039;-78
2022/12/15 02:33:07;;;;;;;37.63;20.27;;;;;;;;;;4990668;28;20120;-77
2022/12/15 02:35:44;;;;;;;34.00;20.23;;;;;;;;;;4990249;28;20042;-78
2022/12/15 02:38:09;;;;;;;44.80;22.52;;;;;;;;;;4987579;28;20049;-77
2022/12/15 02:40:36;;;;;;;42.45;22.52;;;;;;;;;;4990729;28;20045;-75
2022/12/15 02:43:04;;;;;;;37.92;22.35;;;;;;;;;;4990708;28;20034;-76
2022/12/15 02:45:43;;;;;;;49.50;24.65;;;;;;;;;;4987537;28;20038;-78
2022/12/15 02:48:18;;;;;;;35.40;21.85;;;;;;;;;;4988711;28;20041;-78
2022/12/15 02:50:59;;;;;;;41.85;22.02;;;;;;;;;;4988526;28;20101;-77
2022/12/15 02:54:15;;;;;;;40.78;22.85;;;;;;;;;;4987892;28;20401;-77
2022/12/15 02:56:51;;;;;;;42.47;23.00;;;;;;;;;;4964069;28;20054;-76
2022/12/15 02:59:30;;;;;;;42.50;22.33;;;;;;;;;;4964922;28;20540;-76
2022/12/15 03:02:00;;;;;;;30.67;20.23;;;;;;;;;;4963018;28;20486;-76
2022/12/15 03:04:26;;;;;;;34.72;20.67;;;;;;;;;;4964201;28;20603;-77
2022/12/15 03:06:56;;;;;;;42.40;22.88;;;;;;;;;;4964891;28;20141;-77
2022/12/15 03:09:22;;;;;;;42.90;24.77;;;;;;;;;;4967541;28;20038;-78
2022/12/15 03:11:48;;;;;;;42.60;24.60;;;;;;;;;;4965462;28;20050;-78
2022/12/15 03:14:13;;;;;;;44.85;23.23;;;;;;;;;;4965359;28;20059;-78
2022/12/15 03:16:39;;;;;;;42.08;24.17;;;;;;;;;;4966604;28;20106;-76
2022/12/15 03:19:04;;;;;;;42.97;21.83;;;;;;;;;;4966298;28;20057;-76
2022/12/15 03:21:30;;;;;;;46.65;24.20;;;;;;;;;;4953863;28;20570;-78
2022/12/15 03:23:55;;;;;;;45.30;24.65;;;;;;;;;;4966760;28;20038;-78
2022/12/15 03:26:21;;;;;;;44.03;23.40;;;;;;;;;;4965594;28;20582;-79
2022/12/15 03:28:47;;;;;;;45.22;22.40;;;;;;;;;;4968768;28;20081;-79
2022/12/15 03:31:12;;;;;;;42.38;22.27;;;;;;;;;;4968518;28;20049;-78
2022/12/15 03:33:38;;;;;;;40.10;22.55;;;;;;;;;;4988991;28;20033;-78
2022/12/15 03:36:04;;;;;;;39.58;21.48;;;;;;;;;;4990947;28;20496;-78
2022/12/15 03:38:29;;;;;;;40.75;22.65;;;;;;;;;;4987351;28;20030;-78
2022/12/15 03:40:55;;;;;;;43.50;23.85;;;;;;;;;;4987825;28;20399;-78
2022/12/15 03:43:20;;;;;;;39.53;22.13;;;;;;;;;;4987086;28;20038;-78
2022/12/15 03:45:46;;;;;;;47.10;23.33;;;;;;;;;;4989322;28;20034;-78
2022/12/15 03:48:11;;;;;;;44.80;24.25;;;;;;;;;;4989386;28;20501;-78
2022/12/15 03:50:37;;;;;;;42.40;22.90;;;;;;;;;;4988163;28;20678;-77
2022/12/15 03:53:03;;;;;;;42.08;22.98;;;;;;;;;;4994906;28;20042;-77
2022/12/15 03:55:29;;;;;;;40.22;22.55;;;;;;;;;;4991593;28;20034;-77
2022/12/15 03:57:56;;;;;;;45.10;23.10;;;;;;;;;;4992305;28;20026;-77
2022/12/15 04:00:23;;;;;;;44.22;23.65;;;;;;;;;;4990649;28;20034;-78
2022/12/15 04:02:49;;;;;;;46.80;25.23;;;;;;;;;;4986386;28;20065;-78
2022/12/15 04:05:25;;;;;;;43.42;23.10;;;;;;;;;;4989171;28;20030;-78
2022/12/15 04:07:52;;;;;;;46.15;22.17;;;;;;;;;;4987506;28;20529;-78
2022/12/15 04:10:18;;;;;;;52.00;25.10;;;;;;;;;;4986617;28;20030;-78
2022/12/15 04:12:44;;;;;;;45.58;23.88;;;;;;;;;;4987362;28;20065;-78
2022/12/15 04:15:10;;;;;;;46.58;24.25;;;;;;;;;;4984931;28;20037;-78
2022/12/15 04:17:36;;;;;;;41.40;23.70;;;;;;;;;;4987586;28;20035;-78
2022/12/15 04:20:08;;;;;;;44.30;23.77;;;;;;;;;;4985147;28;20093;-78
2022/12/15 04:22:39;;;;;;;42.15;22.98;;;;;;;;;;4987127;28;20042;-78
2022/12/15 05:33:53;;;;;;;38.35;21.65;;;;;;;;;;4984405;28;20576;-76
2022/12/15 05:36:19;;;;;;;43.35;21.17;;;;;;;;;;4997061;28;20077;-76
2022/12/15 05:38:52;;;;;;;46.45;22.58;;;;;;;;;;4984743;28;20058;-76
2022/12/15 05:41:19;;;;;;;49.53;25.10;;;;;;;;;;4985558;28;20042;-77
2022/12/15 05:43:44;;;;;;;43.70;24.63;;;;;;;;;;4989203;28;20121;-76
2022/12/15 05:46:11;;;;;;;36.13;21.88;;;;;;;;;;4985042;28;20121;-77
2022/12/15 05:48:36;;;;;;;39.03;21.52;;;;;;;;;;4988534;28;20528;-76
2022/12/15 05:51:07;;;;;;;38.30;20.95;;;;;;;;;;4990200;28;20038;-76
2022/12/15 05:53:34;;;;;;;39.42;22.08;;;;;;;;;;4989624;28;20628;-77
2022/12/15 05:56:09;;;;;;;39.28;21.20;;;;;;;;;;4985585;28;20113;-78
2022/12/15 05:58:35;;;;;;;39.97;22.08;;;;;;;;;;4988338;28;20034;-76
2022/12/15 06:01:06;;;;;;;41.35;21.88;;;;;;;;;;4990081;28;20042;-76
2022/12/15 06:03:32;;;;;;;45.20;24.02;;;;;;;;;;4982467;28;20050;-78
2022/12/15 06:05:59;;;;;;;38.38;22.40;;;;;;;;;;4987974;28;20034;-76
2022/12/15 06:08:28;;;;;;;38.83;23.02;;;;;;;;;;4985144;28;20038;-75
2022/12/15 06:10:53;;;;;;;40.33;23.20;;;;;;;;;;4990168;28;20038;-78
2022/12/15 06:13:20;;;;;;;41.63;23.92;;;;;;;;;;4988178;28;20038;-76
2022/12/15 06:15:57;;;;;;;43.15;21.95;;;;;;;;;;4974158;28;20096;-77
2022/12/15 06:18:24;;;;;;;40.67;20.20;;;;;;;;;;4985827;28;20027;-76
2022/12/15 06:21:09;;;;;;;44.50;22.77;;;;;;;;;;4986946;28;20058;-78
2022/12/15 06:23:35;;;;;;;35.35;19.67;;;;;;;;;;4988722;28;20569;-77
2022/12/15 06:26:12;;;;;;;37.72;21.30;;;;;;;;;;4986385;28;20117;-77
2022/12/15 06:28:37;;;;;;;45.97;24.10;;;;;;;;;;4986378;28;20451;-78
2022/12/15 06:31:05;;;;;;;41.63;20.42;;;;;;;;;;4990846;28;20132;-78
2022/12/15 06:33:31;;;;;;;41.10;22.27;;;;;;;;;;4987444;28;20185;-78
2022/12/15 06:36:02;;;;;;;44.40;23.63;;;;;;;;;;4989544;28;20030;-77
2022/12/15 06:38:28;;;;;;;31.23;20.23;;;;;;;;;;4985192;28;20030;-78
2022/12/15 06:41:04;;;;;;;37.65;21.48;;;;;;;;;;4989867;28;20129;-78
2022/12/15 06:43:32;;;;;;;40.72;21.67;;;;;;;;;;4994403;28;20061;-79
2022/12/15 06:46:01;;;;;;;38.88;21.45;;;;;;;;;;4993386;28;20059;-79
2022/12/15 06:48:27;;;;;;;34.65;19.98;;;;;;;;;;4979572;28;20049;-78
2022/12/15 06:50:53;;;;;;;39.05;22.10;;;;;;;;;;4987278;28;20061;-78
2022/12/15 06:53:20;;;;;;;34.92;21.77;;;;;;;;;;4994628;28;20061;-78
2022/12/15 06:55:46;;;;;;;47.80;21.23;;;;;;;;;;4991336;28;20046;-78
2022/12/15 06:58:13;;;;;;;34.65;19.80;;;;;;;;;;4990228;28;20041;-78
2022/12/15 07:00:44;;;;;;;45.03;21.70;;;;;;;;;;4990750;28;20030;-78
2022/12/15 07:03:14;;;;;;;33.00;19.98;;;;;;;;;;4991797;28;20030;-78
2022/12/15 07:05:39;;;;;;;39.53;24.15;;;;;;;;;;4989722;28;20041;-78
2022/12/15 07:08:05;;;;;;;35.60;21.63;;;;;;;;;;4989101;28;20049;-78
2022/12/15 07:10:31;;;;;;;39.92;22.55;;;;;;;;;;4990352;28;20157;-79
2022/12/15 07:12:57;;;;;;;39.85;23.08;;;;;;;;;;4990084;28;20034;-79
2022/12/15 07:15:23;;;;;;;31.38;19.52;;;;;;;;;;4992371;28;20034;-78
2022/12/15 07:17:49;;;;;;;38.38;20.55;;;;;;;;;;4988058;28;20086;-79
2022/12/15 07:20:15;;;;;;;42.28;21.13;;;;;;;;;;4991925;28;20033;-78
2022/12/15 07:22:41;;;;;;;34.40;20.77;;;;;;;;;;4989166;28;20542;-78
2022/12/15 07:25:08;;;;;;;33.38;20.33;;;;;;;;;;4990067;28;20042;-79
2022/12/15 07:27:34;;;;;;;36.08;21.38;;;;;;;;;;4991173;28;20213;-82
2022/12/15 07:29:59;;;;;;;38.88;22.55;;;;;;;;;;4991793;28;20037;-81
2022/12/15 07:32:25;;;;;;;38.78;21.80;;;;;;;;;;4991382;28;20030;-83
2022/12/15 07:34:50;;;;;;;40.45;22.50;;;;;;;;;;4990983;28;20042;-83
2022/12/15 07:37:16;;;;;;;36.13;20.45;;;;;;;;;;4994358;28;20033;-83
2022/12/15 07:39:42;;;;;;;43.20;22.77;;;;;;;;;;4994516;28;20062;-83
2022/12/15 07:42:07;;;;;;;40.75;22.00;;;;;;;;;;4991517;28;20498;-83
2022/12/15 07:44:33;;;;;;;39.65;21.05;;;;;;;;;;4985631;28;20049;-82
2022/12/15 07:46:58;;;;;;;33.80;20.20;;;;;;;;;;4989435;28;20088;-83
2022/12/15 07:49:24;;;;;;;39.22;20.95;;;;;;;;;;4991040;28;20038;-83
2022/12/15 07:51:49;;;;;;;41.60;22.92;;;;;;;;;;4992225;28;20521;-83
2022/12/15 07:54:15;;;;;;;35.40;19.90;;;;;;;;;;4986641;28;20057;-77
2022/12/15 07:56:41;;;;;;;39.10;22.05;;;;;;;;;;4990134;28;20038;-77
2022/12/15 07:59:07;;;;;;;39.85;21.30;;;;;;;;;;4985059;28;20034;-80
2022/12/15 08:01:36;;;;;;;39.72;21.35;;;;;;;;;;4988767;28;20513;-79
2022/12/15 08:04:02;;;;;;;47.83;25.20;;;;;;;;;;4988241;28;20038;-79
2022/12/15 08:06:27;;;;;;;43.50;22.70;;;;;;;;;;4991495;28;20069;-79
2022/12/15 08:08:53;;;;;;;40.15;24.08;;;;;;;;;;4990684;28;20084;-80
2022/12/15 08:11:23;;;;;;;46.13;24.90;;;;;;;;;;4990371;28;20034;-80
2022/12/15 08:13:49;;;;;;;48.78;24.05;;;;;;;;;;4991564;28;20030;-80
2022/12/15 08:16:14;;;;;;;43.67;22.10;;;;;;;;;;4991089;28;20023;-78
2022/12/15 08:18:40;;;;;;;34.75;21.98;;;;;;;;;;4991632;28;20054;-78
2022/12/15 08:21:07;;;;;;;50.55;24.23;;;;;;;;;;4986711;28;20444;-80
2022/12/15 08:23:34;;;;;;;41.88;24.48;;;;;;;;;;4987144;28;20038;-78
2022/12/15 08:26:04;;;;;;;45.47;23.38;;;;;;;;;;4985067;28;20159;-78
2022/12/15 08:28:32;;;;;;;41.00;23.83;;;;;;;;;;4986973;28;20621;-79
2022/12/15 08:31:06;;;;;;;44.40;24.73;;;;;;;;;;4987607;28;20042;-79
2022/12/15 08:33:32;;;;;;;51.95;24.00;;;;;;;;;;4989920;28;20050;-77
2022/12/15 08:36:01;;;;;;;45.40;25.08;;;;;;;;;;4990749;28;20038;-80
2022/12/15 08:38:27;;;;;;;42.65;23.60;;;;;;;;;;4987910;28;20053;-78
2022/12/15 08:40:52;;;;;;;46.33;23.98;;;;;;;;;;4992587;28;20042;-80
2022/12/15 08:43:18;;;;;;;40.63;23.05;;;;;;;;;;4988936;28;20046;-78
2022/12/15 08:45:43;;;;;;;41.03;22.75;;;;;;;;;;4988962;28;20043;-78
2022/12/15 08:48:09;;;;;;;44.53;23.05;;;;;;;;;;4990917;28;20447;-79
2022/12/15 08:50:34;;;;;;;37.05;22.60;;;;;;;;;;4985795;28;20046;-79
2022/12/15 08:53:00;;;;;;;42.10;22.77;;;;;;;;;;4988187;28;20038;-80
2022/12/15 08:55:26;;;;;;;34.47;21.55;;;;;;;;;;4985949;28;20069;-80
2022/12/15 08:57:53;;;;;;;33.47;20.88;;;;;;;;;;4988301;28;20030;-80
2022/12/15 09:00:18;;;;;;;41.90;23.63;;;;;;;;;;4990338;28;20144;-79
2022/12/15 09:02:44;;;;;;;37.75;23.00;;;;;;;;;;4979861;28;20062;-78
2022/12/15 09:05:10;;;;;;;36.60;21.52;;;;;;;;;;4990370;28;20118;-77
2022/12/15 09:07:35;;;;;;;35.97;21.77;;;;;;;;;;4991566;28;20120;-79
2022/12/15 09:10:01;;;;;;;38.42;21.23;;;;;;;;;;4991703;28;20049;-81
2022/12/15 09:12:27;;;;;;;36.25;19.27;;;;;;;;;;4991605;28;20034;-80
2022/12/15 09:14:52;;;;;;;33.90;19.80;;;;;;;;;;4989404;28;20046;-78
2022/12/15 09:17:18;;;;;;;41.20;22.33;;;;;;;;;;4992036;28;20454;-77
2022/12/15 09:19:44;;;;;;;47.47;24.35;;;;;;;;;;4997703;28;20421;-80
2022/12/15 09:22:09;;;;;;;34.80;21.80;;;;;;;;;;4993378;28;20042;-79
2022/12/15 09:24:35;;;;;;;41.35;22.05;;;;;;;;;;4997932;28;20038;-76
2022/12/15 09:27:01;;;;;;;36.58;20.88;;;;;;;;;;4997375;28;20402;-78
2022/12/15 09:29:27;;;;;;;35.22;20.58;;;;;;;;;;4999630;28;20061;-79
2022/12/15 09:31:53;;;;;;;35.33;21.13;;;;;;;;;;4993196;28;20042;-78
2022/12/15 09:34:18;;;;;;;40.75;22.50;;;;;;;;;;4998052;28;20034;-81
2022/12/15 09:36:44;;;;;;;32.97;20.67;;;;;;;;;;5002941;28;20038;-76
2022/12/15 09:39:11;;;;;;;34.80;20.83;;;;;;;;;;5014715;28;20038;-77
2022/12/15 09:41:38;;;;;;;31.40;18.83;;;;;;;;;;5011500;28;20034;-77
2022/12/15 09:44:17;;;;;;;29.63;19.45;;;;;;;;;;5013554;28;20042;-78
2022/12/15 09:46:54;;;;;;;30.30;21.00;;;;;;;;;;4989652;28;20085;-77
2022/12/15 09:49:35;;;;;;;29.58;17.85;;;;;;;;;;4989252;28;20048;-79
2022/12/15 09:52:16;;;;;;;31.05;19.65;;;;;;;;;;4990083;28;20215;-78
2022/12/15 09:54:43;;;;;;;30.10;19.20;;;;;;;;;;4990642;28;20034;-75
2022/12/15 09:57:49;;;;;;;36.50;20.25;;;;;;;;;;4988348;28;20030;-77
2022/12/15 10:00:21;;;;;;;31.15;19.88;;;;;;;;;;4978902;28;20050;-79
2022/12/15 10:03:20;;;;;;;31.17;18.98;;;;;;;;;;4992176;28;20022;-79
2022/12/15 10:06:04;;;;;;;27.48;19.55;;;;;;;;;;4992966;28;20053;-79
2022/12/15 10:08:33;;;;;;;40.30;20.13;;;;;;;;;;4988123;28;20045;-77
2022/12/15 10:11:00;;;;;;;35.33;20.23;;;;;;;;;;4992207;28;20046;-78
2022/12/15 10:13:52;;;;;;;42.78;20.88;;;;;;;;;;4990400;28;20521;-78
2022/12/15 10:16:25;;;;;;;27.08;18.67;;;;;;;;;;4991951;28;20038;-79
2022/12/15 10:19:01;;;;;;;31.50;19.38;;;;;;;;;;4992632;28;20034;-77
2022/12/15 10:21:27;;;;;;;36.58;20.35;;;;;;;;;;4991825;28;20038;-76
2022/12/15 10:23:58;;;;;;;27.30;18.15;;;;;;;;;;4990836;28;20178;-78
2022/12/15 10:26:30;;;;;;;32.25;18.65;;;;;;;;;;4993264;28;20033;-78
2022/12/15 10:29:09;;;;;;;31.05;20.10;;;;;;;;;;4989420;28;20038;-79
2022/12/15 10:31:51;;;;;;;28.65;19.15;;;;;;;;;;4988159;28;20049;-79
2022/12/15 10:34:28;;;;;;;30.27;18.13;;;;;;;;;;4993590;28;20041;-79
2022/12/15 10:36:55;;;;;;;30.20;18.27;;;;;;;;;;4974905;28;20042;-80
2022/12/15 10:39:22;;;;;;;31.02;19.73;;;;;;;;;;4990023;28;20031;-78
2022/12/15 10:42:15;;;;;;;26.15;17.08;;;;;;;;;;4991387;28;20042;-78
2022/12/15 10:44:44;;;;;;;30.77;19.10;;;;;;;;;;4989133;28;20046;-79
2022/12/15 10:47:27;;;;;;;34.72;21.02;;;;;;;;;;4990873;28;20058;-79
2022/12/15 10:49:55;;;;;;;29.15;19.35;;;;;;;;;;4944297;28;20057;-78
2022/12/15 10:52:36;;;;;;;34.25;21.45;;;;;;;;;;4997245;28;20425;-79
2022/12/15 10:55:27;;;;;;;36.63;19.98;;;;;;;;;;4991222;28;20050;-77
2022/12/15 10:57:58;;;;;;;34.08;18.88;;;;;;;;;;4987379;28;20041;-78
2022/12/15 11:00:30;;;;;;;34.35;19.98;;;;;;;;;;5002249;28;20084;-79
2022/12/15 11:02:56;;;;;;;33.50;20.13;;;;;;;;;;4995942;28;20094;-80
2022/12/15 11:05:22;;;;;;;37.15;20.75;;;;;;;;;;4988533;28;20056;-77
2022/12/15 11:07:51;;;;;;;38.50;19.88;;;;;;;;;;4993287;28;20129;-78
2022/12/15 11:10:19;;;;;;;31.20;18.90;;;;;;;;;;5000563;28;20342;-78
2022/12/15 11:12:59;;;;;;;35.15;18.58;;;;;;;;;;4994183;28;20038;-77
2022/12/15 11:15:30;;;;;;;35.72;19.27;;;;;;;;;;4993103;28;20419;-79
2022/12/15 11:18:17;;;;;;;34.67;19.35;;;;;;;;;;4994749;28;20594;-79
2022/12/15 11:20:51;;;;;;;28.52;18.40;;;;;;;;;;4998377;28;20037;-78
2022/12/15 11:23:38;;;;;;;27.25;18.58;;;;;;;;;;4991893;28;20141;-78
2022/12/15 11:26:21;;;;;;;32.03;18.17;;;;;;;;;;4995806;28;20140;-78
2022/12/15 11:28:57;;;;;;;23.30;16.80;;;;;;;;;;4996167;28;20101;-78
2022/12/15 11:31:32;;;;;;;23.88;16.52;;;;;;;;;;4994608;28;20557;-78
2022/12/15 11:33:58;;;;;;;32.13;18.15;;;;;;;;;;4999939;28;20038;-77
2022/12/15 11:36:53;;;;;;;25.42;17.13;;;;;;;;;;4993585;28;20089;-78
2022/12/15 11:39:43;;;;;;;29.08;17.77;;;;;;;;;;4992141;28;20498;-79
2022/12/15 11:42:19;;;;;;;28.08;17.52;;;;;;;;;;4995446;28;20034;-78
2022/12/15 11:45:18;;;;;;;26.08;18.45;;;;;;;;;;4990903;28;20660;-78
2022/12/15 11:48:09;;;;;;;22.02;15.68;;;;;;;;;;4993939;28;20113;-77
2022/12/15 11:50:41;;;;;;;26.25;16.27;;;;;;;;;;4991047;28;20039;-78
2022/12/15 11:53:31;;;;;;;29.00;17.40;;;;;;;;;;4995975;28;20046;-78
2022/12/15 11:56:15;;;;;;;20.15;14.35;;;;;;;;;;4989682;28;20045;-77
2022/12/15 11:58:55;;;;;;;25.75;17.02;;;;;;;;;;4985997;28;20058;-77
2022/12/15 12:01:43;;;;;;;27.90;16.88;;;;;;;;;;5000943;28;20103;-78
2022/12/15 12:04:21;;;;;;;25.38;16.30;;;;;;;;;;4997895;28;20079;-79
2022/12/15 12:07:02;;;;;;;25.75;16.13;;;;;;;;;;5001943;28;20061;-77
2022/12/15 12:09:42;;;;;;;25.92;17.67;;;;;;;;;;5001845;28;20437;-77
2022/12/15 12:12:34;;;;;;;28.45;17.33;;;;;;;;;;5001141;28;20046;-79
2022/12/15 12:15:12;;;;;;;23.88;17.08;;;;;;;;;;4996576;28;20099;-78
2022/12/15 12:17:51;;;;;;;25.27;16.95;;;;;;;;;;4996886;28;20045;-78
2022/12/15 12:20:39;;;;;;;30.15;17.77;;;;;;;;;;5005975;28;20041;-77
2022/12/15 12:23:29;;;;;;;31.77;18.25;;;;;;;;;;5002085;28;20064;-77
2022/12/15 12:26:02;;;;;;;28.25;18.58;;;;;;;;;;5001543;28;21383;-79
2022/12/15 12:28:39;;;;;;;34.90;19.60;;;;;;;;;;4996424;28;20030;-78
2022/12/15 12:31:17;;;;;;;22.83;18.00;;;;;;;;;;4989798;28;20121;-77
2022/12/15 12:33:49;;;;;;;29.52;19.08;;;;;;;;;;4995746;28;20038;-77
2022/12/15 12:36:15;;;;;;;31.95;18.35;;;;;;;;;;4993298;28;20034;-77
2022/12/15 12:38:45;;;;;;;24.13;17.58;;;;;;;;;;4989964;28;20038;-77
2022/12/15 12:41:30;;;;;;;29.25;17.42;;;;;;;;;;4992151;28;20064;-77
2022/12/15 12:44:00;;;;;;;33.47;15.32;;;;;;;;;;4996878;28;20038;-77
2022/12/15 12:46:50;;;;;;;28.27;17.33;;;;;;;;;;4990738;28;20047;-76
2022/12/15 12:49:35;;;;;;;29.55;17.65;;;;;;;;;;4989764;28;20192;-77
2022/12/15 12:52:03;;;;;;;23.38;15.98;;;;;;;;;;4991275;28;20512;-77
2022/12/15 12:54:31;;;;;;;19.13;13.75;;;;;;;;;;4988948;28;20049;-78
2022/12/15 12:56:57;;;;;;;29.35;16.38;;;;;;;;;;4989168;28;20089;-76
2022/12/15 12:59:29;;;;;;;29.05;17.45;;;;;;;;;;4993491;28;20034;-77
2022/12/15 13:02:20;;;;;;;25.77;15.90;;;;;;;;;;4996012;28;20038;-77
2022/12/15 13:05:21;;;;;;;26.08;16.35;;;;;;;;;;4997445;28;20117;-78
2022/12/15 13:08:14;;;;;;;24.92;15.80;;;;;;;;;;4995212;28;20037;-77
2022/12/15 13:10:45;;;;;;;26.50;16.48;;;;;;;;;;5000537;28;20038;-78
2022/12/15 13:13:17;;;;;;;26.70;17.05;;;;;;;;;;4993083;28;20075;-78
2022/12/15 13:15:47;;;;;;;26.67;16.23;;;;;;;;;;4996524;28;20137;-77
2022/12/15 13:18:22;;;;;;;26.98;17.45;;;;;;;;;;4991374;28;20031;-77
2022/12/15 13:20:52;;;;;;;31.15;16.25;;;;;;;;;;4994180;28;20764;-78
2022/12/15 13:23:20;;;;;;;25.52;16.92;;;;;;;;;;4993246;28;20061;-77
2022/12/15 13:25:52;;;;;;;25.95;16.20;;;;;;;;;;4993350;28;20038;-77
2022/12/15 13:28:27;;;;;;;26.15;16.45;;;;;;;;;;4993351;28;20030;-78
2022/12/15 13:31:17;;;;;;;32.17;17.40;;;;;;;;;;4993735;28;20046;-77
2022/12/15 13:33:50;;;;;;;26.92;17.60;;;;;;;;;;4992845;28;20763;-78
2022/12/15 13:36:40;;;;;;;29.42;17.95;;;;;;;;;;5000105;28;20033;-78
2022/12/15 13:39:15;;;;;;;30.73;18.15;;;;;;;;;;4995700;28;20412;-76
2022/12/15 13:41:56;;;;;;;26.48;16.20;;;;;;;;;;5003658;28;20120;-79
2022/12/15 13:44:31;;;;;;;24.20;15.57;;;;;;;;;;4997391;28;20045;-76
2022/12/15 13:47:06;;;;;;;28.73;16.23;;;;;;;;;;4998498;28;20042;-79
2022/12/15 13:49:41;;;;;;;26.25;16.45;;;;;;;;;;4989140;28;20032;-77
2022/12/15 13:52:15;;;;;;;22.85;16.33;;;;;;;;;;4995935;28;20038;-77
2022/12/15 13:54:45;;;;;;;25.13;15.63;;;;;;;;;;5004264;28;20029;-77
2022/12/15 13:57:14;;;;;;;28.70;16.63;;;;;;;;;;5002417;28;20031;-77
2022/12/15 14:00:03;;;;;;;30.90;17.73;;;;;;;;;;4995427;28;20034;-77
2022/12/15 14:02:37;;;;;;;24.80;15.02;;;;;;;;;;4993242;28;20038;-76
2022/12/15 14:05:17;;;;;;;30.65;17.83;;;;;;;;;;4998828;28;20094;-78
2022/12/15 14:07:49;;;;;;;34.00;16.92;;;;;;;;;;4997224;28;20038;-79
2022/12/15 14:10:19;;;;;;;24.90;16.83;;;;;;;;;;4996670;28;20073;-77
2022/12/15 14:12:47;;;;;;;26.02;13.93;;;;;;;;;;5004409;28;20528;-77
2022/12/15 14:15:15;;;;;;;27.40;17.33;;;;;;;;;;5001370;28;20034;-79
2022/12/15 14:17:45;;;;;;;28.50;16.98;;;;;;;;;;4995237;28;20030;-77
2022/12/15 14:20:19;;;;;;;30.90;18.13;;;;;;;;;;5003522;28;20038;-77
2022/12/15 14:22:44;;;;;;;31.80;18.17;;;;;;;;;;4997781;28;20038;-76
2022/12/15 14:25:19;;;;;;;31.70;17.67;;;;;;;;;;5000348;28;20161;-78
2022/12/15 14:27:44;;;;;;;32.97;18.05;;;;;;;;;;5006105;28;20077;-78
2022/12/15 14:30:13;;;;;;;29.17;17.27;;;;;;;;;;5002752;28;20074;-76
2022/12/15 14:32:40;;;;;;;29.60;17.80;;;;;;;;;;4994788;28;20038;-78
2022/12/15 14:35:21;;;;;;;25.48;16.42;;;;;;;;;;4993027;28;20289;-77
2022/12/15 14:37:47;;;;;;;26.60;17.17;;;;;;;;;;4998207;28;20489;-77
2022/12/15 14:40:15;;;;;;;32.85;17.92;;;;;;;;;;5002301;28;20044;-77
2022/12/15 14:42:42;;;;;;;28.77;16.17;;;;;;;;;;4995925;28;20445;-75
2022/12/15 14:45:19;;;;;;;30.33;15.93;;;;;;;;;;4998622;28;20038;-75
2022/12/15 14:47:52;;;;;;;29.77;18.30;;;;;;;;;;4993107;28;20049;-77
2022/12/15 14:50:20;;;;;;;29.88;16.48;;;;;;;;;;4994754;28;20133;-76
2022/12/15 14:52:46;;;;;;;29.70;16.50;;;;;;;;;;4995957;28;20550;-75
2022/12/15 14:55:31;;;;;;;28.60;16.75;;;;;;;;;;4996517;28;20040;-75
2022/12/15 14:57:57;;;;;;;28.60;17.05;;;;;;;;;;4992736;28;20054;-75
2022/12/15 15:00:33;;;;;;;27.75;16.13;;;;;;;;;;5000077;28;20034;-78
2022/12/15 15:03:18;;;;;;;25.50;16.83;;;;;;;;;;4989183;28;20041;-78
2022/12/15 15:05:50;;;;;;;29.15;16.23;;;;;;;;;;4985493;28;20069;-78
2022/12/15 15:08:33;;;;;;;30.85;16.98;;;;;;;;;;4987074;28;20038;-78
2022/12/15 15:11:39;;;;;;;34.38;18.27;;;;;;;;;;4992374;28;20446;-78
2022/12/15 15:14:20;;;;;;;25.20;16.58;;;;;;;;;;4986765;28;20034;-78
2022/12/15 15:17:00;;;;;;;28.15;17.35;;;;;;;;;;4999341;28;20042;-78
2022/12/15 15:19:25;;;;;;;26.38;16.08;;;;;;;;;;4988336;28;20336;-77
2022/12/15 15:21:51;;;;;;;32.58;17.50;;;;;;;;;;4993186;28;20637;-77
2022/12/15 15:24:28;;;;;;;31.63;18.45;;;;;;;;;;4991615;28;20124;-76
2022/12/15 15:27:29;;;;;;;33.67;18.63;;;;;;;;;;4989896;28;20034;-76
2022/12/15 15:30:14;;;;;;;35.67;18.45;;;;;;;;;;4994642;28;20080;-77
2022/12/15 15:32:50;;;;;;;29.65;17.20;;;;;;;;;;4994405;28;20123;-77
2022/12/15 15:35:15;;;;;;;29.92;17.85;;;;;;;;;;4995882;28;20502;-76
2022/12/15 15:37:41;;;;;;;40.17;20.70;;;;;;;;;;5000023;28;20031;-77
2022/12/15 15:40:11;;;;;;;32.13;18.23;;;;;;;;;;4987441;28;20199;-76
2022/12/15 15:42:37;;;;;;;41.78;19.52;;;;;;;;;;4992865;28;20050;-77
2022/12/15 15:45:03;;;;;;;32.80;18.35;;;;;;;;;;4992963;28;20038;-76
2022/12/15 15:47:28;;;;;;;37.65;19.33;;;;;;;;;;4989058;28;20030;-76
2022/12/15 15:49:57;;;;;;;32.10;17.83;;;;;;;;;;4986466;28;20608;-76
2022/12/15 15:52:23;;;;;;;33.90;18.65;;;;;;;;;;4985322;28;20049;-76
2022/12/15 15:54:50;;;;;;;32.67;18.67;;;;;;;;;;4990316;28;20031;-76
2022/12/15 15:57:17;;;;;;;31.70;18.75;;;;;;;;;;4993397;28;20029;-75
2022/12/15 15:59:43;;;;;;;33.67;18.45;;;;;;;;;;4987048;28;20037;-77
2022/12/15 16:02:12;;;;;;;39.65;17.52;;;;;;;;;;4986432;28;20029;-77
2022/12/15 16:04:41;;;;;;;28.77;17.25;;;;;;;;;;4988435;28;20047;-77
2022/12/15 16:07:23;;;;;;;32.90;17.67;;;;;;;;;;4989510;28;20034;-75
2022/12/15 16:09:50;;;;;;;37.17;17.48;;;;;;;;;;4986816;28;20410;-76
2022/12/15 16:12:28;;;;;;;30.25;17.45;;;;;;;;;;4995197;28;20022;-77
2022/12/15 16:14:54;;;;;;;57.65;24.80;;;;;;;;;;4995724;28;20461;-76
2022/12/15 16:17:21;;;;;;;35.28;18.50;;;;;;;;;;4991912;28;20064;-77
2022/12/15 16:19:46;;;;;;;43.25;19.63;;;;;;;;;;4992455;28;20039;-77
2022/12/15 16:22:16;;;;;;;42.80;21.23;;;;;;;;;;4989297;28;20061;-75
2022/12/15 16:24:42;;;;;;;28.90;17.73;;;;;;;;;;4997620;28;20054;-77
2022/12/15 16:27:10;;;;;;;33.80;18.15;;;;;;;;;;4992032;28;20038;-77
2022/12/15 16:29:35;;;;;;;31.80;18.00;;;;;;;;;;4991337;28;20045;-78
2022/12/15 16:32:01;;;;;;;35.20;17.02;;;;;;;;;;4986394;28;20034;-77
2022/12/15 16:34:27;;;;;;;27.63;15.48;;;;;;;;;;4997891;28;20101;-77
2022/12/15 16:36:52;;;;;;;27.27;16.38;;;;;;;;;;4991787;28;20453;-77
2022/12/15 16:39:26;;;;;;;29.95;16.55;;;;;;;;;;4999514;28;20041;-76
2022/12/15 16:41:53;;;;;;;32.88;16.88;;;;;;;;;;5004417;28;20033;-77
2022/12/15 16:44:18;;;;;;;26.90;14.98;;;;;;;;;;4997440;28;20030;-77
2022/12/15 16:46:44;;;;;;;17.30;13.40;;;;;;;;;;5004692;28;20042;-77
2022/12/15 16:49:10;;;;;;;30.40;16.25;;;;;;;;;;5000066;28;20031;-76
2022/12/15 16:51:39;;;;;;;21.30;14.90;;;;;;;;;;4997568;28;20050;-77
2022/12/15 16:54:05;;;;;;;24.67;14.77;;;;;;;;;;4992583;28;20034;-77
2022/12/15 16:56:32;;;;;;;24.00;15.57;;;;;;;;;;4993881;28;20031;-78
2022/12/15 16:58:57;;;;;;;26.98;16.45;;;;;;;;;;4998626;28;20061;-80
2022/12/15 17:01:23;;;;;;;25.45;14.65;;;;;;;;;;4999436;28;20375;-77